createdAt,value
2023-02-16T00:01:17.704Z,2.88
2023-02-16T00:03:47.133Z,3.22
2023-02-16T00:06:17.199Z,3.18
2023-02-16T00:08:46.456Z,3.13
2023-02-16T00:11:36.372Z,3.15
2023-02-16T00:14:08.180Z,2.94
2023-02-16T00:16:38.575Z,3.04
2023-02-16T00:19:19.793Z,3.03
2023-02-16T00:21:48.768Z,3.19
2023-02-16T00:24:17.616Z,3.16
2023-02-16T00:26:47.415Z,3.16
2023-02-16T00:29:21.503Z,2.95
2023-02-16T00:31:51.770Z,2.96
2023-02-16T00:34:33.730Z,2.70
2023-02-16T00:37:05.164Z,2.70
2023-02-16T00:39:34.460Z,2.73
2023-02-16T00:42:04.621Z,2.69
2023-02-16T00:44:37.736Z,2.67
2023-02-16T00:47:19.326Z,2.67
2023-02-16T00:49:48.554Z,2.63
2023-02-16T00:52:31.462Z,2.66
2023-02-16T00:55:01.107Z,2.53
2023-02-16T00:57:32.668Z,2.58
2023-02-16T01:00:07.036Z,2.58
2023-02-16T01:02:37.457Z,2.59
2023-02-16T01:05:06.240Z,1.95
2023-02-16T01:07:52.889Z,2.50
2023-02-16T01:10:38.979Z,2.44
2023-02-16T01:13:07.569Z,2.38
2023-02-16T01:15:36.313Z,2.39
2023-02-16T01:18:06.156Z,2.38
2023-02-16T01:20:37.380Z,2.30
2023-02-16T01:23:06.353Z,2.09
2023-02-16T01:25:34.850Z,2.27
2023-02-16T01:28:04.670Z,2.27
2023-02-16T01:30:33.176Z,2.25
2023-02-16T01:33:01.678Z,2.21
2023-02-16T01:35:35.405Z,2.09
2023-02-16T01:38:03.625Z,1.99
2023-02-16T01:40:38.673Z,1.89
2023-02-16T01:43:11.683Z,1.85
2023-02-16T01:45:42.212Z,1.79
2023-02-16T01:48:18.259Z,1.77
2023-02-16T01:50:51.107Z,1.78
2023-02-16T01:53:22.660Z,1.83
2023-02-16T01:55:55.994Z,1.84
2023-02-16T01:58:29.756Z,1.88
2023-02-16T02:01:17.298Z,1.95
2023-02-16T02:04:02.688Z,2.02
2023-02-16T02:06:34.214Z,2.06
2023-02-16T02:09:04.358Z,2.10
2023-02-16T02:11:35.165Z,2.12
2023-02-16T02:14:07.457Z,2.13
2023-02-16T02:16:36.028Z,2.11
2023-02-16T02:19:04.102Z,2.12
2023-02-16T02:22:03.212Z,2.15
2023-02-16T02:24:41.128Z,2.10
2023-02-16T02:27:17.178Z,2.07
2023-02-16T02:30:06.826Z,2.08
2023-02-16T02:32:42.228Z,2.05
2023-02-16T02:35:17.160Z,2.04
2023-02-16T02:37:48.367Z,2.06
2023-02-16T02:40:20.334Z,2.10
2023-02-16T02:42:55.437Z,2.03
2023-02-16T02:45:25.499Z,1.96
2023-02-16T02:47:53.923Z,1.94
2023-02-16T02:51:03.685Z,1.89
2023-02-16T02:53:32.470Z,1.89
2023-02-16T02:56:18.358Z,1.93
2023-02-16T02:59:06.814Z,1.96
2023-02-16T03:01:37.634Z,1.97
2023-02-16T03:04:08.950Z,1.96
2023-02-16T03:06:39.718Z,1.96
2023-02-16T03:09:11.606Z,1.89
2023-02-16T03:11:57.563Z,1.91
2023-02-16T03:14:30.249Z,1.88
2023-02-16T03:17:16.206Z,1.88
2023-02-16T03:20:02.115Z,1.87
2023-02-16T03:22:47.898Z,1.88
2023-02-16T03:25:33.258Z,1.90
2023-02-16T03:28:19.320Z,1.86
2023-02-16T03:30:51.297Z,1.82
2023-02-16T03:33:20.072Z,1.84
2023-02-16T03:35:48.492Z,1.86
2023-02-16T03:38:16.743Z,1.88
2023-02-16T03:40:45.789Z,1.88
2023-02-16T03:43:13.945Z,1.86
2023-02-16T03:45:43.152Z,1.86
2023-02-16T03:48:13.300Z,1.84
2023-02-16T03:50:41.324Z,1.79
2023-02-16T03:53:09.432Z,1.76
2023-02-16T03:55:38.161Z,1.77
2023-02-16T03:58:06.569Z,1.76
2023-02-16T04:00:35.460Z,1.76
2023-02-16T04:03:03.844Z,1.77
2023-02-16T04:05:35.248Z,1.75
2023-02-16T04:08:04.037Z,1.74
2023-02-16T04:10:33.658Z,1.74
2023-02-16T04:13:01.986Z,1.73
2023-02-16T04:15:30.654Z,1.73
2023-02-16T04:17:59.148Z,1.69
2023-02-16T04:20:29.082Z,1.66
2023-02-16T04:22:59.721Z,1.62
2023-02-16T04:25:29.487Z,1.62
2023-02-16T04:27:58.414Z,1.61
2023-02-16T04:30:28.708Z,1.62
2023-02-16T04:32:57.779Z,1.61
2023-02-16T04:35:25.843Z,1.60
2023-02-16T04:37:53.850Z,1.56
2023-02-16T04:40:23.437Z,1.51
2023-02-16T04:42:51.436Z,1.52
2023-02-16T04:45:19.469Z,1.49
2023-02-16T04:47:47.458Z,1.53
2023-02-16T04:50:15.797Z,1.59
2023-02-16T04:52:43.938Z,1.71
2023-02-16T04:55:11.928Z,1.85
2023-02-16T04:57:41.602Z,2.00
2023-02-16T05:00:12.089Z,2.12
2023-02-16T05:02:40.220Z,2.29
2023-02-16T05:05:08.673Z,2.39
2023-02-16T05:07:37.094Z,2.52
2023-02-16T05:10:06.604Z,2.59
2023-02-16T05:12:51.967Z,2.66
2023-02-16T05:15:21.564Z,2.74
2023-02-16T05:17:50.501Z,2.83
2023-02-16T05:20:18.910Z,2.87
2023-02-16T05:22:47.677Z,2.93
2023-02-16T05:25:15.733Z,2.94
2023-02-16T05:27:43.937Z,3.00
2023-02-16T05:30:14.113Z,2.99
2023-02-16T05:32:43.743Z,3.03
2023-02-16T05:35:11.752Z,3.04
2023-02-16T05:37:42.680Z,3.04
2023-02-16T05:40:11.271Z,3.04
2023-02-16T05:42:39.327Z,3.04
2023-02-16T05:45:07.732Z,3.08
2023-02-16T05:47:35.744Z,3.07
2023-02-16T05:50:06.021Z,3.06
2023-02-16T05:52:34.063Z,3.11
2023-02-16T05:55:02.101Z,3.08
2023-02-16T05:57:30.464Z,3.06
2023-02-16T05:59:58.455Z,3.11
2023-02-16T06:02:26.778Z,3.13
2023-02-16T06:04:54.879Z,3.12
2023-02-16T06:07:24.421Z,3.15
2023-02-16T06:09:52.417Z,3.16
2023-02-16T06:12:20.434Z,3.16
2023-02-16T06:14:48.434Z,3.22
2023-02-16T06:17:16.531Z,3.17
2023-02-16T06:19:45.203Z,3.20
2023-02-16T06:22:13.345Z,3.47
2023-02-16T06:24:43.376Z,3.46
2023-02-16T06:27:11.384Z,3.33
2023-02-16T06:29:40.801Z,3.37
2023-02-16T06:32:08.902Z,3.28
2023-02-16T06:34:36.992Z,3.20
2023-02-16T06:37:06.168Z,3.20
2023-02-16T06:39:34.136Z,3.17
2023-02-16T06:42:04.730Z,3.15
2023-02-16T06:44:32.798Z,3.14
2023-02-16T06:47:02.365Z,3.15
2023-02-16T06:49:30.547Z,3.16
2023-02-16T06:51:58.699Z,3.18
2023-02-16T06:54:26.698Z,3.16
2023-02-16T06:56:55.712Z,3.19
2023-02-16T06:59:25.476Z,3.22
2023-02-16T07:01:53.591Z,3.24
2023-02-16T07:04:21.922Z,3.25
2023-02-16T07:06:50.110Z,3.31
2023-02-16T07:09:18.694Z,3.41
2023-02-16T07:11:46.835Z,3.40
2023-02-16T07:14:14.858Z,3.47
2023-02-16T07:16:44.309Z,3.48
2023-02-16T07:19:13.652Z,3.62
2023-02-16T07:21:43.007Z,3.72
2023-02-16T07:24:11.880Z,3.81
2023-02-16T07:26:41.112Z,4.03
2023-02-16T07:29:09.184Z,3.98
2023-02-16T07:31:37.243Z,3.87
2023-02-16T07:34:08.208Z,3.85
2023-02-16T07:36:37.279Z,3.84
2023-02-16T07:39:05.537Z,3.81
2023-02-16T07:41:34.651Z,3.81
2023-02-16T07:44:03.956Z,3.84
2023-02-16T07:46:33.434Z,3.88
2023-02-16T07:49:02.437Z,3.94
2023-02-16T07:51:33.749Z,4.03
2023-02-16T07:54:03.142Z,3.99
2023-02-16T07:56:33.196Z,3.93
2023-02-16T07:59:03.365Z,3.92
2023-02-16T08:01:32.878Z,3.97
2023-02-16T08:04:01.128Z,3.85
2023-02-16T08:06:30.450Z,3.97
2023-02-16T08:09:00.049Z,3.95
2023-02-16T08:11:28.112Z,4.04
2023-02-16T08:13:56.668Z,4.07
2023-02-16T08:16:26.448Z,4.02
2023-02-16T08:18:57.527Z,4.07
2023-02-16T08:21:26.416Z,4.09
2023-02-16T08:23:55.542Z,4.10
2023-02-16T08:26:25.900Z,4.21
2023-02-16T08:28:54.160Z,4.41
2023-02-16T08:31:23.481Z,4.33
2023-02-16T08:33:52.182Z,4.39
2023-02-16T08:36:21.573Z,4.48
2023-02-16T08:38:53.319Z,4.43
2023-02-16T08:41:22.999Z,4.56
2023-02-16T08:43:53.789Z,4.73
2023-02-16T08:46:23.883Z,4.58
2023-02-16T08:48:55.962Z,4.44
2023-02-16T08:51:26.037Z,4.50
2023-02-16T08:53:54.839Z,4.54
2023-02-16T08:56:24.052Z,4.39
2023-02-16T08:58:53.801Z,4.47
2023-02-16T09:01:23.867Z,4.51
2023-02-16T09:03:52.582Z,4.48
2023-02-16T09:06:23.342Z,4.67
2023-02-16T09:08:52.815Z,4.61
2023-02-16T09:11:21.211Z,4.73
2023-02-16T09:13:51.027Z,4.88
2023-02-16T09:16:22.853Z,4.77
2023-02-16T09:18:51.190Z,4.98
2023-02-16T09:21:21.211Z,5.08
2023-02-16T09:23:51.715Z,5.01
2023-02-16T09:26:20.728Z,5.09
2023-02-16T09:28:51.383Z,5.12
2023-02-16T09:31:25.913Z,5.06
2023-02-16T09:33:54.583Z,5.03
2023-02-16T09:36:22.603Z,5.13
2023-02-16T09:38:51.546Z,5.11
2023-02-16T09:41:24.530Z,5.09
2023-02-16T09:43:57.003Z,5.12
2023-02-16T09:46:27.588Z,5.17
2023-02-16T09:48:56.134Z,5.18
2023-02-16T09:51:34.295Z,5.21
2023-02-16T09:54:07.124Z,5.26
2023-02-16T09:56:38.155Z,5.26
2023-02-16T09:59:13.152Z,5.22
2023-02-16T10:01:45.710Z,5.26
2023-02-16T10:04:26.050Z,5.29
2023-02-16T10:06:59.354Z,5.37
2023-02-16T10:09:30.037Z,5.36
2023-02-16T10:12:02.653Z,5.36
2023-02-16T10:14:34.171Z,5.30
2023-02-16T10:17:19.640Z,5.26
2023-02-16T10:19:49.949Z,5.25
2023-02-16T10:22:23.190Z,5.21
2023-02-16T10:24:57.811Z,5.22
2023-02-16T10:27:29.699Z,5.20
2023-02-16T10:29:58.626Z,5.25
2023-02-16T10:32:31.399Z,5.27
2023-02-16T10:35:07.002Z,5.27
2023-02-16T10:37:45.341Z,5.31
2023-02-16T10:40:32.578Z,5.28
2023-02-16T10:43:07.634Z,5.29
2023-02-16T10:45:40.068Z,5.36
2023-02-16T10:48:10.843Z,5.31
2023-02-16T10:50:42.637Z,5.29
2023-02-16T10:53:15.484Z,5.32
2023-02-16T10:55:43.546Z,5.34
2023-02-16T10:58:22.564Z,5.46
2023-02-16T11:00:55.017Z,5.52
2023-02-16T11:03:30.930Z,5.62
2023-02-16T11:06:13.915Z,5.66
2023-02-16T11:08:49.548Z,5.88
2023-02-16T11:11:19.297Z,5.90
2023-02-16T11:13:50.143Z,5.95
2023-02-16T11:16:22.365Z,5.98
2023-02-16T11:18:58.047Z,6.03
2023-02-16T11:21:44.344Z,6.07
2023-02-16T11:24:15.389Z,6.23
2023-02-16T11:26:44.584Z,6.26
2023-02-16T11:29:21.148Z,6.38
2023-02-16T11:31:55.183Z,6.37
2023-02-16T11:34:32.502Z,6.44
2023-02-16T11:37:05.758Z,6.50
2023-02-16T11:39:37.438Z,6.56
2023-02-16T11:42:08.982Z,6.58
2023-02-16T11:44:39.901Z,6.66
2023-02-16T11:47:11.136Z,6.68
2023-02-16T11:49:41.985Z,6.64
2023-02-16T11:52:22.893Z,6.65
2023-02-16T11:54:52.051Z,6.68
2023-02-16T11:57:25.251Z,6.76
2023-02-16T11:59:53.399Z,6.81
2023-02-16T12:02:40.444Z,6.92
2023-02-16T12:05:30.648Z,7.04
2023-02-16T12:08:13.528Z,7.07
2023-02-16T12:10:48.350Z,7.08
2023-02-16T12:13:20.761Z,7.08
2023-02-16T12:15:53.390Z,7.04
2023-02-16T12:18:32.950Z,7.03
2023-02-16T12:21:05.687Z,7.03
2023-02-16T12:23:40.419Z,7.09
2023-02-16T12:26:36.803Z,7.17
2023-02-16T12:29:13.296Z,7.16
2023-02-16T12:31:51.750Z,7.27
2023-02-16T12:34:25.373Z,7.31
2023-02-16T12:37:00.906Z,7.34
2023-02-16T12:39:38.920Z,7.43
2023-02-16T12:42:18.574Z,7.62
2023-02-16T12:44:50.565Z,7.68
2023-02-16T12:47:22.578Z,7.72
2023-02-16T12:49:53.800Z,7.82
2023-02-16T12:52:28.929Z,7.80
2023-02-16T12:55:00.856Z,7.90
2023-02-16T12:57:30.949Z,7.83
2023-02-16T13:00:01.444Z,7.74
2023-02-16T13:02:34.011Z,7.57
2023-02-16T13:05:08.778Z,7.68
2023-02-16T13:07:43.456Z,7.70
2023-02-16T13:10:19.805Z,7.75
2023-02-16T13:12:52.616Z,7.75
2023-02-16T13:15:23.668Z,7.71
2023-02-16T13:17:54.172Z,7.70
2023-02-16T13:20:23.229Z,7.76
2023-02-16T13:23:12.085Z,7.71
2023-02-16T13:25:55.001Z,7.82
2023-02-16T13:28:33.730Z,7.90
2023-02-16T13:31:09.248Z,7.83
2023-02-16T13:33:47.035Z,7.94
2023-02-16T13:36:32.340Z,7.78
2023-02-16T13:39:16.688Z,7.89
2023-02-16T13:42:04.617Z,7.90
2023-02-16T13:44:36.907Z,7.93
2023-02-16T13:47:05.891Z,7.89
2023-02-16T13:49:38.641Z,8.03
2023-02-16T13:52:08.740Z,7.89
2023-02-16T13:54:38.795Z,7.96
2023-02-16T13:57:12.762Z,7.89
2023-02-16T13:59:59.533Z,7.97
2023-02-16T14:02:46.782Z,7.94
2023-02-16T14:05:24.771Z,7.98
2023-02-16T14:08:11.400Z,7.80
2023-02-16T14:10:57.587Z,7.67
2023-02-16T14:13:29.919Z,7.55
2023-02-16T14:15:58.945Z,7.24
2023-02-16T14:18:33.287Z,7.30
2023-02-16T14:21:04.414Z,7.07
2023-02-16T14:23:34.908Z,7.08
2023-02-16T14:26:04.335Z,7.06
2023-02-16T14:29:06.948Z,6.99
2023-02-16T14:31:42.070Z,6.99
2023-02-16T14:34:17.284Z,7.00
2023-02-16T14:37:04.490Z,6.97
2023-02-16T14:39:36.434Z,7.05
2023-02-16T14:42:16.630Z,6.93
2023-02-16T14:44:56.274Z,6.90
2023-02-16T14:47:32.876Z,6.85
2023-02-16T14:50:17.570Z,6.82
2023-02-16T14:52:58.899Z,6.73
2023-02-16T14:55:53.090Z,6.68
2023-02-16T14:58:28.722Z,6.57
2023-02-16T15:00:59.819Z,6.49
2023-02-16T15:03:28.441Z,6.47
2023-02-16T15:06:01.045Z,6.47
2023-02-16T15:08:35.108Z,6.48
2023-02-16T15:11:20.669Z,6.48
2023-02-16T15:13:53.782Z,6.47
2023-02-16T15:16:22.801Z,6.48
2023-02-16T15:18:52.212Z,6.45
2023-02-16T15:21:22.336Z,6.43
2023-02-16T15:23:51.377Z,6.43
2023-02-16T15:26:22.300Z,6.42
2023-02-16T15:28:55.333Z,6.43
2023-02-16T15:31:26.957Z,6.41
2023-02-16T15:33:57.377Z,6.40
2023-02-16T15:36:32.623Z,6.38
2023-02-16T15:39:03.341Z,6.40
2023-02-16T15:41:34.642Z,6.41
2023-02-16T15:44:04.627Z,6.45
2023-02-16T15:46:33.367Z,6.47
2023-02-16T15:49:12.586Z,6.41
2023-02-16T15:51:41.172Z,6.40
2023-02-16T15:54:14.817Z,6.42
2023-02-16T15:56:47.363Z,6.51
2023-02-16T15:59:35.326Z,6.46
2023-02-16T16:02:05.890Z,6.49
2023-02-16T16:04:38.806Z,6.36
2023-02-16T16:07:08.952Z,6.35
2023-02-16T16:09:37.561Z,6.34
2023-02-16T16:12:09.373Z,6.34
2023-02-16T16:14:40.172Z,6.31
2023-02-16T16:17:12.406Z,6.24
2023-02-16T16:19:40.427Z,6.20
2023-02-16T16:22:29.049Z,6.16
2023-02-16T16:24:58.276Z,6.19
2023-02-16T16:27:32.810Z,6.08
2023-02-16T16:30:11.643Z,6.09
2023-02-16T16:32:39.893Z,6.04
2023-02-16T16:35:20.404Z,5.88
2023-02-16T16:37:50.724Z,5.82
2023-02-16T16:40:22.646Z,5.82
2023-02-16T16:43:07.693Z,5.83
2023-02-16T16:45:36.482Z,5.78
2023-02-16T16:48:09.810Z,5.76
2023-02-16T16:50:39.874Z,5.72
2023-02-16T16:53:27.776Z,5.69
2023-02-16T16:55:57.021Z,5.71
2023-02-16T16:58:27.695Z,5.79
2023-02-16T17:00:55.992Z,5.63
2023-02-16T17:03:24.974Z,5.69
2023-02-16T17:05:53.048Z,5.65
2023-02-16T17:08:21.704Z,5.79
2023-02-16T17:10:49.779Z,5.63
2023-02-16T17:13:20.956Z,5.52
2023-02-16T17:15:52.595Z,5.42
2023-02-16T17:18:21.401Z,5.49
2023-02-16T17:20:51.061Z,5.31
2023-02-16T17:23:20.178Z,5.31
2023-02-16T17:25:48.440Z,5.08
2023-02-16T17:28:17.215Z,4.92
2023-02-16T17:30:45.785Z,5.00
2023-02-16T17:33:15.383Z,4.91
2023-02-16T17:35:45.053Z,4.87
2023-02-16T17:38:14.324Z,4.70
2023-02-16T17:40:44.764Z,4.81
2023-02-16T17:43:14.827Z,4.83
2023-02-16T17:45:43.925Z,4.82
2023-02-16T17:48:16.226Z,4.68
2023-02-16T17:50:45.599Z,4.52
2023-02-16T17:53:14.367Z,4.55
2023-02-16T17:55:43.936Z,4.49
2023-02-16T17:58:12.098Z,4.52
2023-02-16T18:00:40.621Z,4.57
2023-02-16T18:03:09.647Z,4.55
2023-02-16T18:05:39.931Z,4.60
2023-02-16T18:08:09.803Z,4.41
2023-02-16T18:10:43.106Z,4.83
2023-02-16T18:13:14.367Z,4.69
2023-02-16T18:15:45.965Z,4.59
2023-02-16T18:18:16.374Z,4.48
2023-02-16T18:20:47.954Z,4.43
2023-02-16T18:23:16.961Z,4.44
2023-02-16T18:25:45.946Z,4.42
2023-02-16T18:28:18.486Z,4.62
2023-02-16T18:30:47.903Z,4.57
2023-02-16T18:33:15.923Z,4.77
2023-02-16T18:35:44.123Z,4.60
2023-02-16T18:38:13.705Z,4.63
2023-02-16T18:40:42.908Z,4.67
2023-02-16T18:43:11.529Z,4.79
2023-02-16T18:45:39.777Z,4.81
2023-02-16T18:48:09.287Z,4.78
2023-02-16T18:50:37.763Z,4.71
2023-02-16T18:53:05.821Z,4.76
2023-02-16T18:55:35.815Z,4.84
2023-02-16T18:58:06.703Z,4.84
2023-02-16T19:00:35.934Z,4.87
2023-02-16T19:03:05.165Z,4.83
2023-02-16T19:05:34.422Z,4.92
2023-02-16T19:08:02.871Z,5.07
2023-02-16T19:10:31.374Z,5.18
2023-02-16T19:13:03.300Z,4.95
2023-02-16T19:15:33.386Z,4.98
2023-02-16T19:18:01.505Z,4.92
2023-02-16T19:20:29.845Z,4.98
2023-02-16T19:22:59.275Z,5.02
2023-02-16T19:25:28.991Z,5.05
2023-02-16T19:27:58.145Z,5.14
2023-02-16T19:30:29.399Z,5.21
2023-02-16T19:32:58.781Z,5.15
2023-02-16T19:35:28.224Z,5.00
2023-02-16T19:37:58.031Z,4.98
2023-02-16T19:40:27.993Z,5.21
2023-02-16T19:42:57.508Z,5.08
2023-02-16T19:45:26.974Z,5.26
2023-02-16T19:47:58.248Z,5.34
2023-02-16T19:50:28.440Z,5.17
2023-02-16T19:52:58.049Z,5.08
2023-02-16T19:55:27.908Z,5.05
2023-02-16T19:57:57.668Z,5.25
2023-02-16T20:00:27.182Z,5.26
2023-02-16T20:02:58.321Z,5.19
2023-02-16T20:05:27.790Z,5.11
2023-02-16T20:07:57.350Z,5.13
2023-02-16T20:10:26.873Z,5.16
2023-02-16T20:12:55.944Z,5.21
2023-02-16T20:15:25.225Z,5.50
2023-02-16T20:17:55.836Z,5.36
2023-02-16T20:20:26.729Z,5.38
2023-02-16T20:22:55.795Z,5.20
2023-02-16T20:25:23.916Z,5.13
2023-02-16T20:27:53.736Z,5.24
2023-02-16T20:30:25.534Z,5.40
2023-02-16T20:32:55.504Z,5.27
2023-02-16T20:35:24.879Z,5.41
2023-02-16T20:37:57.089Z,5.53
2023-02-16T20:40:27.962Z,5.56
2023-02-16T20:42:57.580Z,5.71
2023-02-16T20:45:27.575Z,5.85
2023-02-16T20:48:00.859Z,5.89
2023-02-16T20:50:33.878Z,6.10
2023-02-16T20:53:03.436Z,6.08
2023-02-16T20:55:32.574Z,5.94
2023-02-16T20:58:02.338Z,5.79
2023-02-16T21:00:32.035Z,5.74
2023-02-16T21:03:01.784Z,5.91
2023-02-16T21:05:30.867Z,5.91
2023-02-16T21:08:00.460Z,5.93
2023-02-16T21:10:31.621Z,6.05
2023-02-16T21:13:01.414Z,6.11
2023-02-16T21:15:30.887Z,5.89
2023-02-16T21:18:01.133Z,6.07
2023-02-16T21:20:30.806Z,5.96
2023-02-16T21:23:00.175Z,5.87
2023-02-16T21:25:29.872Z,5.66
2023-02-16T21:27:58.110Z,5.80
2023-02-16T21:30:28.334Z,5.72
2023-02-16T21:32:57.810Z,5.80
2023-02-16T21:35:27.099Z,5.67
2023-02-16T21:37:56.154Z,5.66
2023-02-16T21:40:42.588Z,5.81
2023-02-16T21:43:14.575Z,5.68
2023-02-16T21:45:43.837Z,6.00
2023-02-16T21:48:30.392Z,5.88
2023-02-16T21:51:03.168Z,6.10
2023-02-16T21:53:32.369Z,6.07
2023-02-16T21:56:20.726Z,5.98
2023-02-16T21:58:51.218Z,5.99
2023-02-16T22:01:23.202Z,5.84
2023-02-16T22:03:56.096Z,5.90
2023-02-16T22:06:25.531Z,5.92
2023-02-16T22:08:53.646Z,5.91
2023-02-16T22:11:24.258Z,6.16
2023-02-16T22:13:56.272Z,5.92
2023-02-16T22:16:26.010Z,5.81
2023-02-16T22:18:57.228Z,5.82
2023-02-16T22:21:25.416Z,5.78
2023-02-16T22:23:53.430Z,5.84
2023-02-16T22:26:23.128Z,5.72
2023-02-16T22:28:51.364Z,5.83
2023-02-16T22:31:22.843Z,5.75
2023-02-16T22:33:55.814Z,5.61
2023-02-16T22:36:23.846Z,5.56
2023-02-16T22:38:53.077Z,5.52
2023-02-16T22:41:21.204Z,5.55
2023-02-16T22:43:53.498Z,5.72
2023-02-16T22:46:24.093Z,5.72
2023-02-16T22:48:52.284Z,5.77
2023-02-16T22:51:21.718Z,5.67
2023-02-16T22:53:51.124Z,5.72
2023-02-16T22:56:19.937Z,5.52
2023-02-16T22:58:48.126Z,5.47
2023-02-16T23:01:17.343Z,5.43
2023-02-16T23:03:48.802Z,5.48
2023-02-16T23:06:18.152Z,5.60
2023-02-16T23:08:46.953Z,5.41
2023-02-16T23:11:16.109Z,5.49
2023-02-16T23:13:44.145Z,5.69
2023-02-16T23:16:13.718Z,5.75
2023-02-16T23:18:42.106Z,5.81
2023-02-16T23:21:15.993Z,5.68
2023-02-16T23:23:43.963Z,5.92
2023-02-16T23:26:12.101Z,5.61
2023-02-16T23:28:42.029Z,5.68
2023-02-16T23:31:10.916Z,5.69
2023-02-16T23:33:40.555Z,5.82
2023-02-16T23:36:08.896Z,5.84
2023-02-16T23:38:39.342Z,5.76
2023-02-16T23:41:09.775Z,5.78
2023-02-16T23:43:39.366Z,5.90
2023-02-16T23:46:08.184Z,5.89
2023-02-16T23:48:36.476Z,5.81
2023-02-16T23:51:04.519Z,5.63
2023-02-16T23:53:33.385Z,5.83
2023-02-16T23:56:04.116Z,5.86
2023-02-16T23:58:33.980Z,5.81
